Time;durP1;ratioP1;P1;durP2;ratioP2;P2;SDS_P1;SDS_P2;PMS_P1;PMS_P2;Temp;Humidity;BMP_temperature;BMP_pressure;BME280_temperature;BME280_humidity;BME280_pressure;Samples;Min_cycle;Max_cycle;Signal;HPM_P1;HPM_P2
2021/08/14 00:05:01;;;;;;;15.13;12.78;;;;;;;17.47;86.71;99532.82;4102567;85;21335;-84
2021/08/14 00:11:05;;;;;;;16.67;13.10;;;;;;;17.44;86.83;99528.08;4108733;85;21011;-84
2021/08/14 00:17:06;;;;;;;27.25;15.43;;;;;;;17.40;86.91;99527.33;4107477;84;21057;-84
2021/08/14 00:23:07;;;;;;;18.42;15.35;;;;;;;17.32;87.04;99522.42;4086503;85;21029;-84
2021/08/14 00:29:09;;;;;;;20.97;14.63;;;;;;;17.27;87.35;99522.08;4114013;85;21060;-84
2021/08/14 00:35:11;;;;;;;16.67;12.78;;;;;;;17.18;87.51;99512.84;4088750;84;21035;-84
2021/08/14 00:41:12;;;;;;;22.10;14.10;;;;;;;17.17;87.91;99511.28;4096345;85;21122;-84
2021/08/14 00:47:14;;;;;;;19.02;14.03;;;;;;;17.28;88.03;99509.81;4110709;84;21085;-84
2021/08/14 00:53:15;;;;;;;16.40;12.80;;;;;;;17.18;87.83;99495.66;4116892;85;21064;-84
2021/08/14 00:59:17;;;;;;;23.15;14.90;;;;;;;17.10;87.95;99489.22;4086791;85;21028;-84
2021/08/14 01:05:18;;;;;;;23.45;15.50;;;;;;;17.00;88.04;99477.63;4124896;84;21612;-84
2021/08/14 01:11:20;;;;;;;16.37;12.95;;;;;;;16.90;88.36;99473.73;4112692;85;21103;-84
2021/08/14 01:17:22;;;;;;;18.98;14.47;;;;;;;16.85;88.71;99478.92;4116463;85;21077;-84
2021/08/14 01:23:24;;;;;;;19.50;14.93;;;;;;;16.81;88.80;99465.70;4112516;84;21029;-84
2021/08/14 01:29:25;;;;;;;17.07;12.93;;;;;;;16.85;89.00;99456.80;4100186;85;21091;-84
2021/08/14 01:35:27;;;;;;;16.12;12.35;;;;;;;16.81;89.19;99458.20;4121425;85;21100;-84
2021/08/14 01:41:29;;;;;;;21.50;12.78;;;;;;;16.87;89.45;99466.25;4089929;85;21096;-84
2021/08/14 01:47:30;;;;;;;18.82;15.00;;;;;;;16.85;89.30;99472.01;4087583;85;21750;-84
2021/08/14 01:53:31;;;;;;;19.30;14.10;;;;;;;16.83;89.68;99468.85;4120460;85;21005;-84
2021/08/14 01:59:33;;;;;;;20.43;16.07;;;;;;;16.82;89.86;99473.59;4105025;85;21011;-84
2021/08/14 02:05:35;;;;;;;22.55;14.55;;;;;;;16.79;89.96;99462.55;4107775;85;21626;-85
2021/08/14 02:11:37;;;;;;;24.23;17.25;;;;;;;16.68;89.98;99457.67;4111774;84;21280;-85
2021/08/14 02:17:38;;;;;;;21.97;16.02;;;;;;;16.66;90.31;99443.49;4089265;85;21491;-85
2021/08/14 02:23:40;;;;;;;19.62;15.40;;;;;;;16.65;90.63;99433.02;4112026;84;21024;-86
2021/08/14 02:29:42;;;;;;;17.60;12.35;;;;;;;16.67;90.85;99429.85;4110731;85;21053;-84
2021/08/14 02:35:43;;;;;;;18.52;11.83;;;;;;;16.69;91.23;99434.39;4108553;85;21077;-83
2021/08/14 02:41:45;;;;;;;17.05;13.03;;;;;;;16.88;91.37;99436.63;4105405;85;21029;-84
2021/08/14 02:47:46;;;;;;;16.70;12.47;;;;;;;16.97;91.08;99437.75;4123486;85;21048;-84
2021/08/14 02:53:47;;;;;;;16.32;12.60;;;;;;;16.97;91.16;99435.57;4110403;85;21004;-84
2021/08/14 02:59:48;;;;;;;14.43;12.70;;;;;;;16.97;91.17;99429.45;4091248;85;21102;-84
2021/08/14 03:05:50;;;;;;;19.27;12.75;;;;;;;16.85;91.32;99424.39;4085691;84;21069;-84
2021/08/14 03:11:51;;;;;;;14.00;12.15;;;;;;;16.91;91.63;99424.75;4112309;85;21033;-84
2021/08/14 03:17:54;;;;;;;18.25;12.60;;;;;;;16.87;91.58;99430.30;4121748;84;21033;-84
2021/08/14 03:23:55;;;;;;;22.42;13.68;;;;;;;16.88;91.88;99428.34;4100263;84;21053;-84
2021/08/14 03:29:57;;;;;;;17.30;11.38;;;;;;;16.88;92.04;99438.02;4097663;84;21410;-84
2021/08/14 03:35:58;;;;;;;15.72;12.63;;;;;;;16.97;92.32;99493.06;4181129;83;61537;-83
2021/08/14 03:42:00;;;;;;;18.60;12.60;;;;;;;16.99;92.12;99492.03;4216413;83;21038;-83
2021/08/14 03:48:01;;;;;;;15.10;12.65;;;;;;;17.01;92.79;99475.83;4207511;83;21091;-84
2021/08/14 03:54:02;;;;;;;17.65;13.40;;;;;;;17.06;93.19;99467.11;4189121;83;21077;-84
2021/08/14 04:00:05;;;;;;;17.05;13.93;;;;;;;17.12;92.94;99437.81;4176934;83;21025;-84
2021/08/14 04:06:06;;;;;;;17.20;11.78;;;;;;;17.16;92.92;99424.73;4202560;83;21038;-86
2021/08/14 04:12:09;;;;;;;15.75;11.60;;;;;;;17.19;93.47;99429.44;4193541;82;21011;-83
2021/08/14 04:18:11;;;;;;;13.88;11.40;;;;;;;17.34;93.70;99423.19;4192153;83;22205;-83
2021/08/14 04:24:12;;;;;;;12.40;11.15;;;;;;;17.40;93.67;99444.30;4196195;83;21102;-83
2021/08/14 04:30:14;;;;;;;15.68;11.43;;;;;;;17.54;94.24;99455.27;4199641;83;21017;-82
2021/08/14 04:36:15;;;;;;;12.37;11.03;;;;;;;17.65;93.87;99449.04;4197875;83;21040;-84
2021/08/14 04:42:16;;;;;;;11.95;10.40;;;;;;;17.92;94.14;99444.37;4209143;83;21036;-83
2021/08/14 04:48:18;;;;;;;12.03;10.68;;;;;;;17.98;94.65;99437.97;4197135;83;21008;-83
2021/08/14 04:54:19;;;;;;;14.28;10.53;;;;;;;18.09;94.99;99432.30;4196312;83;21071;-83
2021/08/14 05:00:20;;;;;;;10.53;9.43;;;;;;;18.23;95.23;99438.45;4066083;84;21052;-83
2021/08/14 05:06:21;;;;;;;12.47;10.23;;;;;;;18.38;95.50;99442.66;4023646;86;21075;-83
2021/08/14 05:12:22;;;;;;;11.08;9.15;;;;;;;18.51;95.57;99430.41;4075863;84;21141;-86
2021/08/14 05:18:24;;;;;;;14.28;12.07;;;;;;;18.61;95.64;99449.67;4115859;84;21065;-83
2021/08/14 05:24:26;;;;;;;14.13;10.72;;;;;;;18.71;95.42;99452.11;4115643;84;21096;-83
2021/08/14 05:30:27;;;;;;;15.40;10.65;;;;;;;18.78;95.54;99451.98;4115951;84;21589;-83
2021/08/14 05:36:29;;;;;;;18.70;11.10;;;;;;;18.91;95.67;99465.48;4115231;84;21628;-83
2021/08/14 05:42:31;;;;;;;12.40;10.38;;;;;;;18.99;95.64;99472.49;4100121;84;21556;-84
2021/08/14 05:48:32;;;;;;;9.38;7.90;;;;;;;19.06;95.79;99493.18;4105081;83;21077;-83
2021/08/14 05:54:34;;;;;;;10.25;8.78;;;;;;;19.24;95.81;99470.70;4131472;84;21115;-84
2021/08/14 06:00:36;;;;;;;10.43;8.58;;;;;;;19.37;95.92;99476.65;4109927;84;21144;-84
2021/08/14 06:06:45;;;;;;;10.35;7.95;;;;;;;19.45;95.99;99477.34;4112955;85;21104;-84
2021/08/14 06:12:47;;;;;;;10.53;8.80;;;;;;;19.56;96.15;99469.61;4100321;84;21961;-84
2021/08/14 06:18:50;;;;;;;9.75;7.55;;;;;;;19.68;96.22;99480.89;4088680;84;21092;-84
2021/08/14 06:24:52;;;;;;;8.53;7.62;;;;;;;19.88;96.38;99480.91;4034469;85;21060;-84
2021/08/14 06:30:54;;;;;;;12.70;7.62;;;;;;;20.17;96.31;99473.02;4111055;85;21525;-84
2021/08/14 06:36:55;;;;;;;10.55;7.30;;;;;;;20.42;96.10;99479.48;4108189;83;21069;-84
2021/08/14 06:42:56;;;;;;;11.30;7.10;;;;;;;20.64;95.63;99488.92;4121482;84;21078;-84
2021/08/14 06:49:02;;;;;;;7.03;6.30;;;;;;;20.90;95.38;99483.78;4180511;83;21046;-82
2021/08/14 06:55:05;;;;;;;9.15;7.28;;;;;;;21.23;94.83;99477.67;4224447;83;21113;-84
2021/08/14 07:01:06;;;;;;;7.95;6.37;;;;;;;21.54;94.06;99477.48;4210751;83;21696;-85
2021/08/14 07:07:08;;;;;;;8.50;6.35;;;;;;;21.77;93.67;99477.94;4176241;83;21048;-84
2021/08/14 07:13:09;;;;;;;7.92;5.35;;;;;;;21.86;93.43;99474.69;4189931;83;21394;-84
2021/08/14 07:19:11;;;;;;;8.25;6.00;;;;;;;22.13;92.53;99477.91;4196692;83;21061;-84
2021/08/14 07:25:12;;;;;;;8.75;5.87;;;;;;;22.43;90.64;99479.45;4212750;83;21585;-85
2021/08/14 07:31:16;;;;;;;8.33;6.12;;;;;;;22.77;91.07;99480.43;4105523;84;21487;-85
2021/08/14 07:37:18;;;;;;;7.03;6.17;;;;;;;23.00;90.77;99484.92;4032955;85;21098;-85
2021/08/14 07:43:19;;;;;;;9.43;5.90;;;;;;;23.23;90.41;99483.97;4099686;84;21021;-85
2021/08/14 07:49:20;;;;;;;7.17;5.70;;;;;;;23.49;88.92;99480.53;4007480;86;21682;-85
2021/08/14 07:55:23;;;;;;;8.65;5.83;;;;;;;23.87;88.21;99484.63;4098270;84;21206;-85
2021/08/14 08:01:24;;;;;;;7.17;5.40;;;;;;;24.35;87.77;99476.51;4110389;84;21076;-85
2021/08/14 08:07:25;;;;;;;9.75;5.50;;;;;;;24.83;86.36;99473.72;4098694;84;21063;-84
2021/08/14 08:13:26;;;;;;;7.80;5.72;;;;;;;25.30;85.51;99469.23;4084690;84;21552;-84
2021/08/14 08:19:28;;;;;;;6.37;5.53;;;;;;;25.83;82.63;99460.79;4055633;85;21028;-85
2021/08/14 08:25:29;;;;;;;7.92;5.37;;;;;;;25.81;80.94;99466.08;4030250;86;21855;-84
2021/08/14 08:31:32;;;;;;;8.78;4.83;;;;;;;25.81;80.94;99466.08;4037094;85;21098;-86
2021/08/14 08:37:34;;;;;;;7.72;6.55;;;;;;;25.99;80.88;99463.30;4121661;84;21126;-85
2021/08/14 08:43:46;;;;;;;6.97;5.45;;;;;;;26.08;80.41;99433.25;4006588;86;21032;-84
2021/08/14 08:49:59;;;;;;;6.40;5.58;;;;;;;26.47;76.65;99456.72;4111468;84;21049;-85
2021/08/14 08:56:02;;;;;;;8.78;5.45;;;;;;;26.87;77.06;99458.68;4107883;84;21075;-86
2021/08/14 09:02:04;;;;;;;7.20;5.45;;;;;;;26.99;75.99;99453.47;3999749;85;22059;-86
2021/08/14 09:08:10;;;;;;;7.53;5.65;;;;;;;27.04;74.60;99458.45;4136851;84;21045;-85
2021/08/14 09:14:12;;;;;;;7.90;5.90;;;;;;;27.23;74.35;99458.52;4105498;84;21063;-85
2021/08/14 09:20:19;;;;;;;9.18;6.40;;;;;;;27.44;73.55;99453.88;4115522;84;21006;-84
2021/08/14 09:26:24;;;;;;;8.65;5.37;;;;;;;27.70;72.44;99440.12;4112213;84;21185;-84
2021/08/14 09:32:26;;;;;;;6.58;5.83;;;;;;;28.21;71.54;99435.81;4084416;84;21653;-84
2021/08/14 09:38:49;;;;;;;6.62;5.90;;;;;;;28.76;70.94;99436.82;4111843;85;21018;-85
2021/08/14 09:45:18;;;;;;;9.50;5.50;;;;;;;29.22;69.23;99430.63;4100267;84;21119;-85
2021/08/14 09:51:33;;;;;;;7.85;6.20;;;;;;;29.93;68.45;99428.02;4116652;85;21082;-85
2021/08/14 09:57:38;;;;;;;6.13;5.53;;;;;;;30.25;67.05;99426.21;4008559;86;21074;-86
2021/08/14 10:03:42;;;;;;;9.95;6.17;;;;;;;30.93;66.65;99419.23;4218112;83;21037;-86
2021/08/14 10:09:45;;;;;;;8.18;5.62;;;;;;;31.43;65.21;99415.36;4187118;83;21111;-86
2021/08/14 10:15:49;;;;;;;6.70;5.55;;;;;;;32.06;64.40;99421.55;4077861;84;21060;-86
2021/08/14 10:22:05;;;;;;;8.33;5.97;;;;;;;32.46;62.60;99409.16;4106250;84;21034;-86
2021/08/14 10:28:11;;;;;;;6.90;6.20;;;;;;;32.37;61.23;99400.14;4098957;85;21351;-87
2021/08/14 10:34:18;;;;;;;8.55;6.15;;;;;;;32.74;59.93;99406.33;4107851;85;21613;-85
2021/08/14 10:40:52;;;;;;;8.60;5.67;;;;;;;33.10;58.84;99402.45;4212356;83;21142;-86
2021/08/14 10:46:55;;;;;;;7.53;6.03;;;;;;;33.13;57.29;99389.42;4161713;83;20983;-86
2021/08/14 10:53:16;;;;;;;8.88;6.22;;;;;;;32.89;56.46;99389.20;4207260;83;21008;-87
2021/08/14 10:59:43;;;;;;;10.53;6.12;;;;;;;32.77;56.98;99382.61;4190870;83;21580;-86
2021/08/14 11:05:46;;;;;;;7.35;5.55;;;;;;;32.97;55.77;99365.34;4188018;83;22167;-87
2021/08/14 11:12:02;;;;;;;7.03;5.78;;;;;;;32.95;54.36;99361.61;4190879;83;21670;-86
2021/08/14 11:18:27;;;;;;;9.03;6.08;;;;;;;32.81;53.88;99356.20;4203486;83;20991;-88
2021/08/14 11:25:01;;;;;;;6.95;6.25;;;;;;;33.12;53.50;99345.98;4030914;83;21047;-87
2021/08/14 11:31:09;;;;;;;7.87;5.97;;;;;;;33.67;52.82;99347.22;4196274;83;21612;-87
2021/08/14 11:37:18;;;;;;;10.85;6.40;;;;;;;33.80;51.65;99343.80;4186653;83;21484;-87
2021/08/14 11:43:19;;;;;;;6.03;5.40;;;;;;;33.85;51.16;99342.97;4172204;83;21554;-87
2021/08/14 11:49:28;;;;;;;6.42;5.80;;;;;;;33.69;50.87;99334.67;4206017;83;21112;-87
2021/08/14 11:55:34;;;;;;;6.42;5.10;;;;;;;33.56;50.34;99334.50;4208854;83;21812;-86
2021/08/14 12:01:38;;;;;;;7.97;5.67;;;;;;;33.12;49.08;99319.03;4198739;83;21045;-87
2021/08/14 12:07:45;;;;;;;8.43;5.35;;;;;;;32.78;50.29;99323.98;4189969;82;21028;-87
2021/08/14 12:13:48;;;;;;;6.22;5.35;;;;;;;32.39;50.04;99318.25;4186956;83;21039;-86
2021/08/14 12:20:01;;;;;;;7.20;6.10;;;;;;;31.84;50.43;99318.91;4188533;83;21036;-86
2021/08/14 12:26:09;;;;;;;8.98;6.03;;;;;;;31.43;50.56;99314.93;4198328;83;21069;-87
2021/08/14 12:32:10;;;;;;;7.62;5.85;;;;;;;31.06;51.40;99308.55;4220707;83;21618;-87
2021/08/14 12:38:12;;;;;;;7.78;6.08;;;;;;;30.86;51.51;99310.89;4217066;83;21080;-86
2021/08/14 12:44:13;;;;;;;8.25;6.17;;;;;;;30.62;51.70;99305.45;4178332;83;21104;-86
2021/08/14 12:50:27;;;;;;;7.10;6.35;;;;;;;30.36;51.54;99310.53;4195130;83;21961;-86
2021/08/14 12:56:28;;;;;;;7.10;6.40;;;;;;;30.15;51.36;99304.01;4224341;83;21378;-86
2021/08/14 13:02:30;;;;;;;9.20;6.28;;;;;;;30.00;51.76;99304.16;4208947;83;21557;-87
2021/08/14 13:08:31;;;;;;;7.47;5.87;;;;;;;29.85;52.52;99306.30;4198966;83;21031;-85
2021/08/14 13:14:32;;;;;;;8.95;6.50;;;;;;;29.70;52.09;99292.95;4207401;83;21711;-87
2021/08/14 13:20:34;;;;;;;7.30;6.20;;;;;;;29.56;52.97;99288.78;4188705;83;21085;-86
2021/08/14 13:26:36;;;;;;;8.33;6.37;;;;;;;29.54;52.86;99286.45;4202424;83;21064;-86
2021/08/14 13:32:38;;;;;;;8.90;5.83;;;;;;;29.51;53.53;99275.39;4193819;83;21090;-86
2021/08/14 13:38:39;;;;;;;8.90;5.90;;;;;;;29.40;54.33;99280.28;4213970;83;21481;-86
2021/08/14 13:44:41;;;;;;;11.93;6.08;;;;;;;29.40;54.31;99267.59;4204569;83;21016;-87
2021/08/14 13:50:43;;;;;;;9.85;5.97;;;;;;;29.35;54.24;99271.11;4207327;83;21046;-86
2021/08/14 13:56:45;;;;;;;6.80;6.00;;;;;;;29.29;54.60;99265.30;4193522;83;21042;-86
2021/08/14 14:02:46;;;;;;;11.63;6.50;;;;;;;29.17;54.91;99257.33;4223132;83;21046;-86
2021/08/14 14:08:49;;;;;;;7.28;6.58;;;;;;;29.05;55.40;99258.44;4228212;83;21042;-87
2021/08/14 14:14:50;;;;;;;8.60;6.03;;;;;;;28.87;55.19;99256.67;4214287;83;20999;-86
2021/08/14 14:20:51;;;;;;;9.25;6.62;;;;;;;28.81;55.19;99263.49;4201626;83;20984;-86
2021/08/14 14:26:53;;;;;;;10.88;6.80;;;;;;;28.84;55.58;99261.09;4221653;83;21064;-86
2021/08/14 14:33:00;;;;;;;8.10;6.35;;;;;;;28.81;55.47;99269.13;3973399;83;28849;-86
2021/08/14 14:39:01;;;;;;;9.83;7.15;;;;;;;28.72;56.00;99269.27;3971372;88;21052;-87
2021/08/14 14:45:04;;;;;;;10.80;6.58;;;;;;;28.56;56.10;99265.58;3908479;90;21644;-86
2021/08/14 14:51:19;;;;;;;8.30;6.97;;;;;;;28.37;55.86;99257.19;3878511;89;21173;-86
2021/08/14 14:57:20;;;;;;;12.00;8.35;;;;;;;28.08;56.72;99254.44;3970557;87;21600;-85
2021/08/14 15:03:25;;;;;;;9.90;7.80;;;;;;;28.09;56.71;99251.13;3970035;87;21055;-86
2021/08/14 15:09:27;;;;;;;9.60;7.03;;;;;;;28.14;56.89;99248.27;3959022;88;21059;-86
2021/08/14 15:15:28;;;;;;;9.65;7.40;;;;;;;28.19;57.13;99248.98;3952119;88;21110;-86
2021/08/14 15:21:54;;;;;;;8.68;7.30;;;;;;;28.20;57.43;99248.50;3963906;88;21019;-87
2021/08/14 15:28:21;;;;;;;8.27;6.63;;;;;;;28.13;56.93;99224.20;3924347;89;21382;-85
2021/08/14 15:34:23;;;;;;;12.85;7.62;;;;;;;28.13;56.93;99224.20;3915345;88;22150;-85
2021/08/14 15:40:24;;;;;;;9.73;7.45;;;;;;;28.10;56.92;99218.12;3936932;88;21093;-86
2021/08/14 15:46:25;;;;;;;9.93;7.50;;;;;;;28.09;57.07;99208.14;3898644;89;21150;-85
2021/08/14 15:59:43;;;;;;;9.38;7.20;;;;;;;27.92;57.96;99214.92;3962701;87;21130;-86
2021/08/14 16:05:46;;;;;;;8.45;7.25;;;;;;;27.81;58.00;99209.08;3961571;88;21045;-87
2021/08/14 16:11:51;;;;;;;9.35;7.42;;;;;;;27.68;58.50;99204.37;3964082;88;21036;-86
2021/08/14 16:17:52;;;;;;;12.97;7.73;;;;;;;27.56;58.80;99196.36;3975169;88;21094;-86
2021/08/14 16:24:10;;;;;;;10.93;7.65;;;;;;;27.47;58.99;99196.46;3961317;88;21126;-86
2021/08/14 16:30:18;;;;;;;10.30;7.37;;;;;;;27.34;59.31;99195.95;3985935;86;21090;-86
2021/08/14 16:36:26;;;;;;;9.85;7.55;;;;;;;27.23;59.23;99204.80;3965719;88;21086;-86
2021/08/14 16:42:41;;;;;;;9.90;7.95;;;;;;;27.14;59.28;99195.80;3967674;85;21042;-86
2021/08/14 16:48:42;;;;;;;12.18;8.35;;;;;;;27.02;59.69;99203.88;3969597;87;21634;-85
2021/08/14 16:54:46;;;;;;;10.50;7.58;;;;;;;26.90;59.49;99208.34;3969900;87;21047;-86
2021/08/14 17:01:10;;;;;;;10.82;8.10;;;;;;;26.81;59.53;99202.16;3970645;86;21567;-86
2021/08/14 17:07:11;;;;;;;10.90;7.92;;;;;;;26.73;59.52;99203.02;3970707;88;21111;-85
2021/08/14 17:13:14;;;;;;;14.93;9.03;;;;;;;26.61;59.67;99209.63;3961632;88;21745;-85
2021/08/14 17:19:26;;;;;;;21.13;15.03;;;;;;;26.45;59.82;99211.44;3960479;88;21612;-84
2021/08/14 17:25:39;;;;;;;77.95;56.10;;;;;;;26.36;60.01;99202.43;3966229;88;21015;-86
2021/08/14 17:31:47;;;;;;;36.25;25.10;;;;;;;26.27;60.32;99209.50;3970723;86;20991;-86
2021/08/14 17:37:56;;;;;;;22.15;11.43;;;;;;;25.88;61.59;99196.55;3958318;88;21134;-86
2021/08/14 17:44:05;;;;;;;14.53;9.90;;;;;;;25.88;61.59;99196.55;3967358;87;21293;-86
2021/08/14 17:50:08;;;;;;;43.42;23.70;;;;;;;25.63;62.36;99194.92;3969362;87;21807;-85
2021/08/14 17:56:22;;;;;;;26.12;15.65;;;;;;;25.37;63.09;99193.72;3964759;87;21598;-86
2021/08/14 18:02:24;;;;;;;24.60;16.70;;;;;;;25.16;63.92;99184.86;3963181;88;21380;-85
2021/08/14 18:08:35;;;;;;;37.90;23.75;;;;;;;24.97;64.68;99190.92;3977864;88;21099;-84
2021/08/14 18:14:49;;;;;;;48.60;30.37;;;;;;;24.83;65.29;99185.95;3971202;88;21067;-85
2021/08/14 18:21:00;;;;;;;47.88;30.55;;;;;;;24.66;66.00;99189.68;3971341;88;21075;-85
2021/08/14 18:27:04;;;;;;;61.98;36.35;;;;;;;24.51;66.64;99190.08;3963428;87;21160;-86
2021/08/14 18:33:11;;;;;;;61.20;38.23;;;;;;;24.34;67.20;99197.19;3966828;88;21591;-85
2021/08/14 18:39:25;;;;;;;;;;;;;;;24.12;68.05;99193.09;3971998;88;21094;-85
2021/08/14 18:45:32;;;;;;;51.63;34.65;;;;;;;23.82;69.87;99202.25;3964096;88;20159;-85
2021/08/14 18:51:38;;;;;;;51.55;35.45;;;;;;;23.58;69.25;99197.02;3967342;88;21067;-85
2021/08/14 18:57:44;;;;;;;44.95;30.60;;;;;;;23.41;69.78;99191.48;3892753;88;21158;-85
2021/08/14 19:03:45;;;;;;;34.85;22.13;;;;;;;23.27;70.95;99201.01;3811212;90;21111;-85
2021/08/14 19:09:47;;;;;;;27.70;20.97;;;;;;;23.12;71.19;99198.70;3919651;88;21099;-85
2021/08/14 19:16:00;;;;;;;26.15;19.60;;;;;;;23.00;71.74;99198.16;3910271;88;21121;-85
2021/08/14 19:22:04;;;;;;;27.58;20.50;;;;;;;22.86;72.21;99195.08;3967648;87;21087;-85
2021/08/14 19:28:06;;;;;;;25.62;19.62;;;;;;;22.66;72.95;99198.14;3957189;88;21143;-85
2021/08/14 19:34:25;;;;;;;31.48;20.37;;;;;;;22.55;73.30;99194.17;3967311;88;21162;-85
2021/08/14 19:40:39;;;;;;;28.62;20.02;;;;;;;22.39;73.76;99192.28;3969671;88;21063;-85
2021/08/14 19:46:57;;;;;;;29.65;19.80;;;;;;;22.23;74.27;99190.23;3958944;88;21130;-85
2021/08/14 19:52:58;;;;;;;30.52;20.02;;;;;;;22.16;75.07;99191.87;3966692;88;21100;-85
2021/08/14 19:59:08;;;;;;;28.20;21.62;;;;;;;22.14;75.59;99193.71;3975818;86;21145;-85
2021/08/14 20:05:17;;;;;;;29.55;21.30;;;;;;;22.02;75.85;99183.33;3956173;88;21961;-84
2021/08/14 20:11:27;;;;;;;32.45;21.20;;;;;;;21.98;76.51;99181.28;3962131;87;21639;-85
2021/08/14 20:17:28;;;;;;;29.63;20.65;;;;;;;21.87;76.74;99181.44;3966293;88;21071;-85
2021/08/14 20:23:51;;;;;;;31.48;21.95;;;;;;;21.70;77.24;99184.92;3968552;87;21115;-85
2021/08/14 20:29:52;;;;;;;29.12;20.50;;;;;;;21.60;77.80;99181.84;3958339;87;21066;-85
2021/08/14 20:35:53;;;;;;;26.42;19.67;;;;;;;21.54;78.41;99178.05;3965644;87;21862;-85
2021/08/14 20:42:06;;;;;;;28.40;21.05;;;;;;;21.45;78.83;99172.36;3957574;88;21014;-84
2021/08/14 20:48:07;;;;;;;26.23;20.88;;;;;;;21.48;79.28;99175.05;3963758;86;21663;-84
2021/08/14 20:54:11;;;;;;;26.85;20.52;;;;;;;21.33;79.56;99174.52;3963395;88;21095;-84
2021/08/14 21:00:13;;;;;;;35.55;24.92;;;;;;;21.13;79.94;99177.46;3987908;86;21075;-84
2021/08/14 21:06:14;;;;;;;32.17;25.15;;;;;;;21.03;80.44;99171.58;3904754;88;21701;-85
2021/08/14 21:12:18;;;;;;;36.23;23.80;;;;;;;21.01;80.91;99175.42;3969712;87;21208;-85
2021/08/14 21:18:26;;;;;;;35.65;23.87;;;;;;;21.02;81.40;99174.20;3910324;89;21659;-84
2021/08/14 21:24:27;;;;;;;30.50;24.07;;;;;;;20.97;81.42;99165.63;3892884;88;21571;-84
2021/08/14 21:30:33;;;;;;;33.55;25.77;;;;;;;20.85;81.92;99167.70;3979182;87;21062;-84
2021/08/14 21:36:34;;;;;;;31.50;24.20;;;;;;;20.75;82.23;99161.20;3983583;87;21111;-85
2021/08/14 21:42:44;;;;;;;32.30;23.60;;;;;;;20.70;82.77;99162.36;3968949;88;21078;-84
2021/08/14 21:48:46;;;;;;;35.28;24.63;;;;;;;20.56;83.00;99162.14;3970668;87;21102;-85
2021/08/14 21:54:48;;;;;;;30.95;23.95;;;;;;;20.56;83.38;99151.61;3970508;87;21622;-85
2021/08/14 22:00:50;;;;;;;32.85;24.23;;;;;;;20.46;83.86;99152.66;3964205;88;21050;-85
2021/08/14 22:06:51;;;;;;;31.87;22.98;;;;;;;20.45;84.22;99149.72;3949233;88;21852;-84
2021/08/14 22:12:53;;;;;;;30.48;24.23;;;;;;;20.39;84.62;99144.52;3965908;88;21715;-85
2021/08/14 22:18:55;;;;;;;36.50;25.35;;;;;;;20.28;84.63;99141.98;3968402;88;21107;-84
2021/08/14 22:24:56;;;;;;;29.32;22.77;;;;;;;20.16;84.91;99141.31;3973041;88;21119;-85
2021/08/14 22:31:00;;;;;;;33.42;25.00;;;;;;;20.14;85.36;99136.80;3962943;88;21519;-85
2021/08/14 22:37:02;;;;;;;33.38;25.45;;;;;;;20.12;85.65;99136.44;3963408;88;21606;-85
2021/08/14 22:43:08;;;;;;;37.50;25.75;;;;;;;20.07;85.98;99135.56;3922939;88;22139;-85
2021/08/14 22:49:09;;;;;;;28.17;20.43;;;;;;;20.01;86.24;99137.30;3819541;89;21750;-85
2021/08/14 22:55:11;;;;;;;29.70;23.18;;;;;;;19.92;86.32;99136.52;3989696;86;21579;-85
2021/08/14 23:01:14;;;;;;;32.65;24.23;;;;;;;19.77;86.43;99138.08;3952049;87;21050;-84
2021/08/14 23:07:18;;;;;;;34.67;25.68;;;;;;;19.69;86.84;99126.16;3963545;87;21086;-84
2021/08/14 23:13:20;;;;;;;31.35;24.72;;;;;;;19.62;87.32;99120.16;3995210;87;21113;-85
2021/08/14 23:19:23;;;;;;;34.95;24.70;;;;;;;19.55;87.47;99116.77;3878789;88;21207;-85
2021/08/14 23:25:24;;;;;;;33.80;23.80;;;;;;;19.54;87.99;99113.83;3848891;89;21670;-85
2021/08/14 23:31:26;;;;;;;28.90;22.42;;;;;;;19.54;88.36;99125.73;3938679;87;21130;-85
2021/08/14 23:37:30;;;;;;;33.50;23.42;;;;;;;19.51;88.47;99123.02;3942065;87;21160;-85
2021/08/14 23:43:31;;;;;;;29.30;23.52;;;;;;;19.50;88.57;99124.22;3949203;87;21156;-85
2021/08/14 23:49:32;;;;;;;26.93;22.50;;;;;;;19.50;88.70;99120.84;3963398;87;21377;-85
2021/08/14 23:55:34;;;;;;;28.57;22.73;;;;;;;19.43;88.90;99121.02;3981675;87;21603;-85
